sensor_id;sensor_type;location;lat;lon;timestamp;pressure;altitude;pressure_sealevel;temperature;humidity
76726;BME280;65651;53.154;17.916;2024-02-26T00:00:50;100088.08;;;1.26;89.51
76726;BME280;65651;53.154;17.916;2024-02-26T00:03:37;100087.94;;;1.23;89.37
76726;BME280;65651;53.154;17.916;2024-02-26T00:06:08;100082.66;;;1.20;89.52
76726;BME280;65651;53.154;17.916;2024-02-26T00:08:35;100081.23;;;1.18;89.76
76726;BME280;65651;53.154;17.916;2024-02-26T00:11:02;100075.39;;;1.15;89.90
76726;BME280;65651;53.154;17.916;2024-02-26T00:13:29;100075.70;;;1.13;89.65
76726;BME280;65651;53.154;17.916;2024-02-26T00:16:01;100075.00;;;1.10;89.47
76726;BME280;65651;53.154;17.916;2024-02-26T00:18:28;100078.26;;;1.06;89.79
76726;BME280;65651;53.154;17.916;2024-02-26T00:20:55;100079.78;;;1.05;89.73
76726;BME280;65651;53.154;17.916;2024-02-26T00:23:22;100084.23;;;1.01;89.59
76726;BME280;65651;53.154;17.916;2024-02-26T00:25:50;100086.04;;;0.98;89.42
76726;BME280;65651;53.154;17.916;2024-02-26T00:28:17;100087.40;;;0.96;89.73
76726;BME280;65651;53.154;17.916;2024-02-26T00:30:47;100084.79;;;0.93;89.66
76726;BME280;65651;53.154;17.916;2024-02-26T00:33:17;100082.38;;;0.89;89.84
76726;BME280;65651;53.154;17.916;2024-02-26T00:35:44;100078.00;;;0.86;89.98
76726;BME280;65651;53.154;17.916;2024-02-26T00:38:11;100077.52;;;0.82;89.87
76726;BME280;65651;53.154;17.916;2024-02-26T00:40:38;100078.22;;;0.79;89.78
76726;BME280;65651;53.154;17.916;2024-02-26T00:43:04;100076.55;;;0.78;89.72
76726;BME280;65651;53.154;17.916;2024-02-26T00:45:32;100077.09;;;0.77;89.99
76726;BME280;65651;53.154;17.916;2024-02-26T00:47:59;100075.09;;;0.78;90.05
76726;BME280;65651;53.154;17.916;2024-02-26T00:50:31;100076.88;;;0.81;89.94
76726;BME280;65651;53.154;17.916;2024-02-26T00:52:59;100074.42;;;0.87;89.96
76726;BME280;65651;53.154;17.916;2024-02-26T00:55:26;100070.21;;;0.91;90.13
76726;BME280;65651;53.154;17.916;2024-02-26T00:57:53;100068.45;;;0.97;89.89
76726;BME280;65651;53.154;17.916;2024-02-26T01:00:20;100067.25;;;1.02;90.02
76726;BME280;65651;53.154;17.916;2024-02-26T01:02:47;100061.30;;;1.06;90.34
76726;BME280;65651;53.154;17.916;2024-02-26T01:05:14;100064.89;;;1.11;90.25
76726;BME280;65651;53.154;17.916;2024-02-26T01:07:43;100060.17;;;1.13;89.89
76726;BME280;65651;53.154;17.916;2024-02-26T01:10:10;100060.36;;;1.15;90.00
76726;BME280;65651;53.154;17.916;2024-02-26T01:12:37;100062.36;;;1.17;90.33
76726;BME280;65651;53.154;17.916;2024-02-26T01:15:07;100062.72;;;1.20;90.51
76726;BME280;65651;53.154;17.916;2024-02-26T01:17:35;100064.86;;;1.22;90.14
76726;BME280;65651;53.154;17.916;2024-02-26T01:20:02;100068.96;;;1.24;90.40
76726;BME280;65651;53.154;17.916;2024-02-26T01:22:29;100072.58;;;1.26;90.36
76726;BME280;65651;53.154;17.916;2024-02-26T01:24:56;100074.38;;;1.28;90.18
76726;BME280;65651;53.154;17.916;2024-02-26T01:27:23;100073.83;;;1.28;89.93
76726;BME280;65651;53.154;17.916;2024-02-26T01:29:53;100075.03;;;1.29;90.16
76726;BME280;65651;53.154;17.916;2024-02-26T01:32:20;100075.23;;;1.28;90.36
76726;BME280;65651;53.154;17.916;2024-02-26T01:34:47;100074.63;;;1.27;90.17
76726;BME280;65651;53.154;17.916;2024-02-26T01:37:14;100073.98;;;1.26;90.04
76726;BME280;65651;53.154;17.916;2024-02-26T01:39:41;100070.98;;;1.26;90.11
76726;BME280;65651;53.154;17.916;2024-02-26T01:42:10;100078.30;;;1.25;90.36
76726;BME280;65651;53.154;17.916;2024-02-26T01:44:37;100082.31;;;1.23;90.39
76726;BME280;65651;53.154;17.916;2024-02-26T01:47:07;100087.17;;;1.22;90.29
76726;BME280;65651;53.154;17.916;2024-02-26T01:49:37;100083.17;;;1.21;90.25
76726;BME280;65651;53.154;17.916;2024-02-26T01:52:07;100089.08;;;1.22;90.07
76726;BME280;65651;53.154;17.916;2024-02-26T01:54:36;100085.14;;;1.23;90.28
76726;BME280;65651;53.154;17.916;2024-02-26T01:57:06;100083.33;;;1.21;90.03
76726;BME280;65651;53.154;17.916;2024-02-26T01:59:35;100085.74;;;1.19;89.96
76726;BME280;65651;53.154;17.916;2024-02-26T02:02:06;100084.67;;;1.17;90.16
76726;BME280;65651;53.154;17.916;2024-02-26T02:04:37;100081.59;;;1.15;90.33
76726;BME280;65651;53.154;17.916;2024-02-26T02:07:06;100083.19;;;1.12;90.15
76726;BME280;65651;53.154;17.916;2024-02-26T02:09:33;100077.47;;;1.08;90.32
76726;BME280;65651;53.154;17.916;2024-02-26T02:12:00;100073.35;;;1.00;90.39
76726;BME280;65651;53.154;17.916;2024-02-26T02:14:27;100073.41;;;0.96;90.33
76726;BME280;65651;53.154;17.916;2024-02-26T02:16:55;100083.06;;;0.92;90.17
76726;BME280;65651;53.154;17.916;2024-02-26T02:19:22;100081.35;;;0.89;90.20
76726;BME280;65651;53.154;17.916;2024-02-26T02:21:52;100080.45;;;0.86;90.11
76726;BME280;65651;53.154;17.916;2024-02-26T02:24:19;100078.60;;;0.85;89.89
76726;BME280;65651;53.154;17.916;2024-02-26T02:26:46;100078.95;;;0.82;90.16
76726;BME280;65651;53.154;17.916;2024-02-26T02:29:14;100085.98;;;0.79;90.17
76726;BME280;65651;53.154;17.916;2024-02-26T02:31:42;100085.98;;;0.77;90.19
76726;BME280;65651;53.154;17.916;2024-02-26T02:34:09;100082.27;;;0.77;90.09
76726;BME280;65651;53.154;17.916;2024-02-26T02:36:56;100083.19;;;0.76;90.17
76726;BME280;65651;53.154;17.916;2024-02-26T02:39:24;100090.16;;;0.77;90.22
76726;BME280;65651;53.154;17.916;2024-02-26T02:41:51;100090.65;;;0.78;90.46
76726;BME280;65651;53.154;17.916;2024-02-26T02:44:17;100092.13;;;0.77;90.36
76726;BME280;65651;53.154;17.916;2024-02-26T02:46:44;100097.55;;;0.81;90.26
76726;BME280;65651;53.154;17.916;2024-02-26T02:49:11;100095.45;;;0.81;90.32
76726;BME280;65651;53.154;17.916;2024-02-26T02:51:38;100099.02;;;0.80;90.30
76726;BME280;65651;53.154;17.916;2024-02-26T02:54:05;100098.17;;;0.79;90.36
76726;BME280;65651;53.154;17.916;2024-02-26T02:56:32;100101.22;;;0.78;90.44
76726;BME280;65651;53.154;17.916;2024-02-26T02:58:59;100099.25;;;0.79;90.44
76726;BME280;65651;53.154;17.916;2024-02-26T03:01:26;100100.16;;;0.79;90.59
76726;BME280;65651;53.154;17.916;2024-02-26T03:03:53;100098.14;;;0.77;90.44
76726;BME280;65651;53.154;17.916;2024-02-26T03:06:20;100098.66;;;0.74;90.40
76726;BME280;65651;53.154;17.916;2024-02-26T03:08:47;100093.31;;;0.70;90.48
76726;BME280;65651;53.154;17.916;2024-02-26T03:11:17;100089.68;;;0.66;90.56
76726;BME280;65651;53.154;17.916;2024-02-26T03:13:45;100081.48;;;0.62;90.40
76726;BME280;65651;53.154;17.916;2024-02-26T03:16:17;100076.51;;;0.56;90.44
76726;BME280;65651;53.154;17.916;2024-02-26T03:18:44;100077.88;;;0.51;90.42
76726;BME280;65651;53.154;17.916;2024-02-26T03:21:11;100075.59;;;0.45;90.48
76726;BME280;65651;53.154;17.916;2024-02-26T03:23:38;100076.58;;;0.41;90.34
76726;BME280;65651;53.154;17.916;2024-02-26T03:26:05;100076.77;;;0.35;90.35
76726;BME280;65651;53.154;17.916;2024-02-26T03:28:32;100072.47;;;0.30;90.41
76726;BME280;65651;53.154;17.916;2024-02-26T03:31:01;100067.20;;;0.24;90.35
76726;BME280;65651;53.154;17.916;2024-02-26T03:33:29;100068.77;;;0.18;90.59
76726;BME280;65651;53.154;17.916;2024-02-26T03:35:56;100063.96;;;0.14;90.86
76726;BME280;65651;53.154;17.916;2024-02-26T03:38:23;100068.02;;;0.08;90.59
76726;BME280;65651;53.154;17.916;2024-02-26T03:40:50;100063.84;;;-0.02;90.66
76726;BME280;65651;53.154;17.916;2024-02-26T03:43:17;100068.90;;;-0.07;90.53
76726;BME280;65651;53.154;17.916;2024-02-26T03:45:44;100069.86;;;-0.14;90.58
76726;BME280;65651;53.154;17.916;2024-02-26T03:48:11;100076.06;;;-0.20;90.62
76726;BME280;65651;53.154;17.916;2024-02-26T03:50:38;100082.77;;;-0.27;90.57
76726;BME280;65651;53.154;17.916;2024-02-26T03:53:08;100089.59;;;-0.32;90.62
76726;BME280;65651;53.154;17.916;2024-02-26T03:55:39;100091.39;;;-0.35;90.56
76726;BME280;65651;53.154;17.916;2024-02-26T03:58:08;100095.06;;;-0.38;90.54
76726;BME280;65651;53.154;17.916;2024-02-26T04:00:36;100104.04;;;-0.41;90.54
76726;BME280;65651;53.154;17.916;2024-02-26T04:03:04;100103.91;;;-0.44;90.55
76726;BME280;65651;53.154;17.916;2024-02-26T04:05:31;100108.17;;;-0.45;90.54
76726;BME280;65651;53.154;17.916;2024-02-26T04:08:04;100100.83;;;-0.43;90.61
76726;BME280;65651;53.154;17.916;2024-02-26T04:10:34;100101.14;;;-0.39;90.55
76726;BME280;65651;53.154;17.916;2024-02-26T04:13:08;100097.50;;;-0.34;90.63
76726;BME280;65651;53.154;17.916;2024-02-26T04:15:35;100100.33;;;-0.28;90.61
76726;BME280;65651;53.154;17.916;2024-02-26T04:18:02;100093.19;;;-0.24;90.86
76726;BME280;65651;53.154;17.916;2024-02-26T04:20:29;100093.80;;;-0.19;90.97
76726;BME280;65651;53.154;17.916;2024-02-26T04:22:56;100094.20;;;-0.14;90.86
76726;BME280;65651;53.154;17.916;2024-02-26T04:25:23;100097.08;;;-0.09;91.04
76726;BME280;65651;53.154;17.916;2024-02-26T04:27:50;100096.45;;;-0.04;90.98
76726;BME280;65651;53.154;17.916;2024-02-26T04:30:17;100098.05;;;0.01;91.16
76726;BME280;65651;53.154;17.916;2024-02-26T04:32:44;100093.97;;;0.07;91.09
76726;BME280;65651;53.154;17.916;2024-02-26T04:35:12;100092.58;;;0.13;91.23
76726;BME280;65651;53.154;17.916;2024-02-26T04:37:39;100087.87;;;0.18;91.25
76726;BME280;65651;53.154;17.916;2024-02-26T04:40:07;100087.06;;;0.22;91.34
76726;BME280;65651;53.154;17.916;2024-02-26T04:42:34;100088.45;;;0.26;91.43
76726;BME280;65651;53.154;17.916;2024-02-26T04:45:02;100091.54;;;0.30;91.24
76726;BME280;65651;53.154;17.916;2024-02-26T04:47:29;100094.98;;;0.35;91.29
76726;BME280;65651;53.154;17.916;2024-02-26T04:49:56;100097.20;;;0.38;91.32
76726;BME280;65651;53.154;17.916;2024-02-26T04:52:24;100100.25;;;0.43;91.37
76726;BME280;65651;53.154;17.916;2024-02-26T04:54:51;100101.23;;;0.47;91.44
76726;BME280;65651;53.154;17.916;2024-02-26T04:57:18;100101.95;;;0.47;91.39
76726;BME280;65651;53.154;17.916;2024-02-26T04:59:45;100108.00;;;0.46;91.27
76726;BME280;65651;53.154;17.916;2024-02-26T05:02:15;100106.85;;;0.42;91.43
76726;BME280;65651;53.154;17.916;2024-02-26T05:04:42;100105.42;;;0.40;91.53
76726;BME280;65651;53.154;17.916;2024-02-26T05:07:09;100112.13;;;0.37;91.47
76726;BME280;65651;53.154;17.916;2024-02-26T05:09:36;100118.35;;;0.36;91.21
76726;BME280;65651;53.154;17.916;2024-02-26T05:12:04;100122.59;;;0.36;91.44
76726;BME280;65651;53.154;17.916;2024-02-26T05:14:31;100124.94;;;0.35;91.22
76726;BME280;65651;53.154;17.916;2024-02-26T05:16:58;100130.40;;;0.36;91.55
76726;BME280;65651;53.154;17.916;2024-02-26T05:19:25;100132.11;;;0.36;91.43
76726;BME280;65651;53.154;17.916;2024-02-26T05:21:52;100135.83;;;0.36;91.58
76726;BME280;65651;53.154;17.916;2024-02-26T05:24:19;100136.90;;;0.36;91.48
76726;BME280;65651;53.154;17.916;2024-02-26T05:26:49;100138.70;;;0.35;91.41
76726;BME280;65651;53.154;17.916;2024-02-26T05:29:16;100142.69;;;0.36;91.60
76726;BME280;65651;53.154;17.916;2024-02-26T05:31:43;100141.97;;;0.37;91.41
76726;BME280;65651;53.154;17.916;2024-02-26T05:34:10;100147.88;;;0.38;91.58
76726;BME280;65651;53.154;17.916;2024-02-26T05:36:38;100150.06;;;0.40;91.68
76726;BME280;65651;53.154;17.916;2024-02-26T05:39:05;100155.91;;;0.42;91.69
76726;BME280;65651;53.154;17.916;2024-02-26T05:41:32;100160.75;;;0.45;91.63
76726;BME280;65651;53.154;17.916;2024-02-26T05:43:59;100163.27;;;0.46;91.54
76726;BME280;65651;53.154;17.916;2024-02-26T05:46:26;100166.33;;;0.48;91.55
76726;BME280;65651;53.154;17.916;2024-02-26T05:48:54;100165.67;;;0.50;91.64
76726;BME280;65651;53.154;17.916;2024-02-26T05:51:21;100165.34;;;0.53;91.44
76726;BME280;65651;53.154;17.916;2024-02-26T05:53:48;100169.23;;;0.53;91.73
76726;BME280;65651;53.154;17.916;2024-02-26T05:56:23;100168.14;;;0.53;91.58
76726;BME280;65651;53.154;17.916;2024-02-26T05:58:50;100168.06;;;0.55;91.48
76726;BME280;65651;53.154;17.916;2024-02-26T06:01:19;100163.70;;;0.54;91.42
76726;BME280;65651;53.154;17.916;2024-02-26T06:03:46;100165.27;;;0.51;91.38
76726;BME280;65651;53.154;17.916;2024-02-26T06:06:13;100165.70;;;0.50;91.48
76726;BME280;65651;53.154;17.916;2024-02-26T06:08:41;100170.19;;;0.52;91.36
76726;BME280;65651;53.154;17.916;2024-02-26T06:11:09;100171.11;;;0.54;91.39
76726;BME280;65651;53.154;17.916;2024-02-26T06:13:37;100167.02;;;0.55;91.46
76726;BME280;65651;53.154;17.916;2024-02-26T06:16:04;100177.06;;;0.58;91.37
76726;BME280;65651;53.154;17.916;2024-02-26T06:18:31;100172.89;;;0.57;91.29
76726;BME280;65651;53.154;17.916;2024-02-26T06:21:01;100172.52;;;0.60;91.44
76726;BME280;65651;53.154;17.916;2024-02-26T06:23:28;100178.28;;;0.64;91.52
76726;BME280;65651;53.154;17.916;2024-02-26T06:25:55;100181.38;;;0.71;91.30
76726;BME280;65651;53.154;17.916;2024-02-26T06:28:22;100185.29;;;0.76;91.38
76726;BME280;65651;53.154;17.916;2024-02-26T06:30:50;100186.91;;;0.81;91.36
76726;BME280;65651;53.154;17.916;2024-02-26T06:33:19;100187.01;;;0.86;91.33
76726;BME280;65651;53.154;17.916;2024-02-26T06:35:46;100187.31;;;0.92;91.46
76726;BME280;65651;53.154;17.916;2024-02-26T06:38:13;100179.16;;;1.03;91.33
76726;BME280;65651;53.154;17.916;2024-02-26T06:40:40;100180.13;;;1.16;91.42
76726;BME280;65651;53.154;17.916;2024-02-26T06:43:07;100177.86;;;1.27;91.12
76726;BME280;65651;53.154;17.916;2024-02-26T06:45:37;100178.34;;;1.36;91.25
76726;BME280;65651;53.154;17.916;2024-02-26T06:48:05;100176.73;;;1.47;90.97
76726;BME280;65651;53.154;17.916;2024-02-26T06:50:32;100178.98;;;1.56;90.85
76726;BME280;65651;53.154;17.916;2024-02-26T06:52:59;100185.66;;;1.60;91.11
76726;BME280;65651;53.154;17.916;2024-02-26T06:55:26;100191.87;;;1.60;91.15
76726;BME280;65651;53.154;17.916;2024-02-26T06:57:53;100194.38;;;1.59;90.81
76726;BME280;65651;53.154;17.916;2024-02-26T07:00:20;100193.40;;;1.63;90.73
76726;BME280;65651;53.154;17.916;2024-02-26T07:02:47;100189.35;;;1.68;90.84
76726;BME280;65651;53.154;17.916;2024-02-26T07:05:16;100195.17;;;1.71;90.58
76726;BME280;65651;53.154;17.916;2024-02-26T07:07:44;100198.40;;;1.76;90.77
76726;BME280;65651;53.154;17.916;2024-02-26T07:10:11;100202.26;;;1.79;90.80
76726;BME280;65651;53.154;17.916;2024-02-26T07:12:39;100198.53;;;1.87;90.74
76726;BME280;65651;53.154;17.916;2024-02-26T07:15:07;100198.64;;;1.94;90.92
76726;BME280;65651;53.154;17.916;2024-02-26T07:17:35;100202.30;;;2.00;90.47
76726;BME280;65651;53.154;17.916;2024-02-26T07:20:02;100202.96;;;2.06;90.59
76726;BME280;65651;53.154;17.916;2024-02-26T07:22:32;100202.35;;;2.12;90.53
76726;BME280;65651;53.154;17.916;2024-02-26T07:24:59;100202.95;;;2.19;90.39
76726;BME280;65651;53.154;17.916;2024-02-26T07:27:26;100209.27;;;2.23;90.57
76726;BME280;65651;53.154;17.916;2024-02-26T07:29:53;100213.09;;;2.27;90.36
76726;BME280;65651;53.154;17.916;2024-02-26T07:32:20;100213.52;;;2.34;90.15
76726;BME280;65651;53.154;17.916;2024-02-26T07:34:47;100209.92;;;2.55;90.12
76726;BME280;65651;53.154;17.916;2024-02-26T07:37:14;100209.58;;;2.70;89.88
76726;BME280;65651;53.154;17.916;2024-02-26T07:39:41;100213.76;;;2.79;90.10
76726;BME280;65651;53.154;17.916;2024-02-26T07:42:07;100215.52;;;2.92;89.85
76726;BME280;65651;53.154;17.916;2024-02-26T07:44:34;100216.95;;;3.14;89.93
76726;BME280;65651;53.154;17.916;2024-02-26T07:47:01;100218.88;;;3.30;89.90
76726;BME280;65651;53.154;17.916;2024-02-26T07:49:29;100222.92;;;3.40;89.76
76726;BME280;65651;53.154;17.916;2024-02-26T07:51:56;100223.06;;;3.45;89.60
76726;BME280;65651;53.154;17.916;2024-02-26T07:54:25;100225.23;;;3.52;89.66
76726;BME280;65651;53.154;17.916;2024-02-26T07:56:52;100228.77;;;3.62;89.56
76726;BME280;65651;53.154;17.916;2024-02-26T07:59:20;100227.29;;;3.75;89.38
76726;BME280;65651;53.154;17.916;2024-02-26T08:01:51;100232.05;;;3.85;89.34
76726;BME280;65651;53.154;17.916;2024-02-26T08:04:18;100229.13;;;3.91;89.14
76726;BME280;65651;53.154;17.916;2024-02-26T08:06:45;100231.41;;;3.96;89.12
76726;BME280;65651;53.154;17.916;2024-02-26T08:09:12;100231.94;;;4.11;89.09
76726;BME280;65651;53.154;17.916;2024-02-26T08:11:39;100239.25;;;4.27;88.89
76726;BME280;65651;53.154;17.916;2024-02-26T08:14:06;100237.98;;;4.42;89.10
76726;BME280;65651;53.154;17.916;2024-02-26T08:16:33;100239.14;;;4.61;88.97
76726;BME280;65651;53.154;17.916;2024-02-26T08:19:00;100237.67;;;4.78;88.79
76726;BME280;65651;53.154;17.916;2024-02-26T08:21:28;100238.27;;;4.89;88.71
76726;BME280;65651;53.154;17.916;2024-02-26T08:23:55;100242.58;;;5.13;88.52
76726;BME280;65651;53.154;17.916;2024-02-26T08:26:22;100237.75;;;5.38;88.36
76726;BME280;65651;53.154;17.916;2024-02-26T08:28:51;100239.34;;;5.58;88.87
76726;BME280;65651;53.154;17.916;2024-02-26T08:31:18;100238.85;;;5.82;88.34
76726;BME280;65651;53.154;17.916;2024-02-26T08:33:45;100238.17;;;6.12;87.86
76726;BME280;65651;53.154;17.916;2024-02-26T08:36:12;100235.26;;;6.36;87.85
76726;BME280;65651;53.154;17.916;2024-02-26T08:38:40;100233.91;;;6.55;87.46
76726;BME280;65651;53.154;17.916;2024-02-26T08:41:07;100231.90;;;6.74;87.50
76726;BME280;65651;53.154;17.916;2024-02-26T08:43:34;100228.14;;;6.77;87.32
76726;BME280;65651;53.154;17.916;2024-02-26T08:46:01;100233.23;;;6.73;86.87
76726;BME280;65651;53.154;17.916;2024-02-26T08:48:28;100235.97;;;6.68;87.00
76726;BME280;65651;53.154;17.916;2024-02-26T08:50:55;100235.73;;;6.67;86.61
76726;BME280;65651;53.154;17.916;2024-02-26T08:53:22;100238.00;;;6.74;86.99
76726;BME280;65651;53.154;17.916;2024-02-26T08:55:49;100242.68;;;6.84;87.03
76726;BME280;65651;53.154;17.916;2024-02-26T08:58:17;100243.50;;;6.93;86.74
76726;BME280;65651;53.154;17.916;2024-02-26T09:00:44;100243.88;;;7.03;86.44
76726;BME280;65651;53.154;17.916;2024-02-26T09:03:11;100240.63;;;7.14;86.54
76726;BME280;65651;53.154;17.916;2024-02-26T09:05:39;100244.14;;;7.26;86.44
76726;BME280;65651;53.154;17.916;2024-02-26T09:08:08;100242.24;;;7.32;86.55
76726;BME280;65651;53.154;17.916;2024-02-26T09:10:35;100244.75;;;7.36;86.39
76726;BME280;65651;53.154;17.916;2024-02-26T09:13:03;100237.66;;;7.40;86.45
76726;BME280;65651;53.154;17.916;2024-02-26T09:15:30;100235.08;;;7.44;86.36
76726;BME280;65651;53.154;17.916;2024-02-26T09:17:57;100244.38;;;7.52;86.29
76726;BME280;65651;53.154;17.916;2024-02-26T09:20:24;100245.56;;;7.51;86.09
76726;BME280;65651;53.154;17.916;2024-02-26T09:22:51;100246.90;;;7.46;86.21
76726;BME280;65651;53.154;17.916;2024-02-26T09:25:19;100249.10;;;7.45;86.24
76726;BME280;65651;53.154;17.916;2024-02-26T09:27:49;100250.73;;;7.49;86.34
76726;BME280;65651;53.154;17.916;2024-02-26T09:30:16;100250.34;;;7.53;86.57
76726;BME280;65651;53.154;17.916;2024-02-26T09:32:46;100256.91;;;7.62;86.51
76726;BME280;65651;53.154;17.916;2024-02-26T09:35:13;100257.04;;;7.73;86.27
76726;BME280;65651;53.154;17.916;2024-02-26T09:37:40;100252.31;;;7.79;86.27
76726;BME280;65651;53.154;17.916;2024-02-26T09:40:08;100252.05;;;7.74;85.75
76726;BME280;65651;53.154;17.916;2024-02-26T09:42:37;100251.53;;;7.68;86.18
76726;BME280;65651;53.154;17.916;2024-02-26T09:45:17;100258.79;;;7.73;86.09
76726;BME280;65651;53.154;17.916;2024-02-26T09:47:48;100257.40;;;7.81;86.17
76726;BME280;65651;53.154;17.916;2024-02-26T09:50:17;100254.08;;;7.86;85.90
76726;BME280;65651;53.154;17.916;2024-02-26T09:52:44;100252.62;;;7.90;85.95
76726;BME280;65651;53.154;17.916;2024-02-26T09:55:12;100248.80;;;7.97;85.82
76726;BME280;65651;53.154;17.916;2024-02-26T09:57:44;100248.87;;;8.06;85.62
76726;BME280;65651;53.154;17.916;2024-02-26T10:00:18;100247.16;;;8.19;85.62
76726;BME280;65651;53.154;17.916;2024-02-26T10:02:48;100254.59;;;8.35;85.48
76726;BME280;65651;53.154;17.916;2024-02-26T10:05:19;100257.77;;;8.46;85.33
76726;BME280;65651;53.154;17.916;2024-02-26T10:07:46;100254.19;;;8.57;85.05
76726;BME280;65651;53.154;17.916;2024-02-26T10:10:14;100254.77;;;8.70;84.66
76726;BME280;65651;53.154;17.916;2024-02-26T10:12:42;100256.80;;;8.83;84.55
76726;BME280;65651;53.154;17.916;2024-02-26T10:15:09;100249.30;;;8.95;84.37
76726;BME280;65651;53.154;17.916;2024-02-26T10:17:36;100249.89;;;9.01;83.83
76726;BME280;65651;53.154;17.916;2024-02-26T10:20:15;100246.83;;;9.07;83.86
76726;BME280;65651;53.154;17.916;2024-02-26T10:22:43;100245.76;;;9.15;83.54
76726;BME280;65651;53.154;17.916;2024-02-26T10:25:10;100243.16;;;9.21;83.33
76726;BME280;65651;53.154;17.916;2024-02-26T10:27:37;100240.48;;;9.31;83.42
76726;BME280;65651;53.154;17.916;2024-02-26T10:30:16;100237.80;;;9.41;82.97
76726;BME280;65651;53.154;17.916;2024-02-26T10:32:45;100235.21;;;9.50;82.50
76726;BME280;65651;53.154;17.916;2024-02-26T10:35:14;100229.87;;;9.57;82.17
76726;BME280;65651;53.154;17.916;2024-02-26T10:37:42;100228.96;;;9.70;82.10
76726;BME280;65651;53.154;17.916;2024-02-26T10:40:13;100230.91;;;9.85;81.97
76726;BME280;65651;53.154;17.916;2024-02-26T10:42:41;100229.88;;;9.97;81.58
76726;BME280;65651;53.154;17.916;2024-02-26T10:45:09;100229.05;;;10.05;81.40
76726;BME280;65651;53.154;17.916;2024-02-26T10:47:36;100229.94;;;10.12;81.05
76726;BME280;65651;53.154;17.916;2024-02-26T10:50:05;100236.09;;;10.23;80.85
76726;BME280;65651;53.154;17.916;2024-02-26T10:52:34;100233.42;;;10.35;80.21
76726;BME280;65651;53.154;17.916;2024-02-26T10:55:03;100232.67;;;10.45;79.51
76726;BME280;65651;53.154;17.916;2024-02-26T10:57:35;100235.82;;;10.54;79.36
76726;BME280;65651;53.154;17.916;2024-02-26T11:00:05;100241.77;;;10.68;79.06
76726;BME280;65651;53.154;17.916;2024-02-26T11:02:36;100237.02;;;10.78;78.06
76726;BME280;65651;53.154;17.916;2024-02-26T11:05:03;100233.05;;;10.82;77.85
76726;BME280;65651;53.154;17.916;2024-02-26T11:07:31;100226.95;;;10.81;77.33
76726;BME280;65651;53.154;17.916;2024-02-26T11:10:09;100220.30;;;10.83;77.54
76726;BME280;65651;53.154;17.916;2024-02-26T11:12:39;100218.86;;;10.89;76.92
76726;BME280;65651;53.154;17.916;2024-02-26T11:15:08;100214.90;;;10.96;76.87
76726;BME280;65651;53.154;17.916;2024-02-26T11:17:36;100214.66;;;10.98;76.55
76726;BME280;65651;53.154;17.916;2024-02-26T11:20:09;100219.38;;;10.95;76.43
76726;BME280;65651;53.154;17.916;2024-02-26T11:22:38;100223.67;;;10.99;76.69
76726;BME280;65651;53.154;17.916;2024-02-26T11:25:05;100221.58;;;11.04;76.47
76726;BME280;65651;53.154;17.916;2024-02-26T11:27:42;100222.15;;;11.07;76.15
76726;BME280;65651;53.154;17.916;2024-02-26T11:30:11;100217.47;;;11.09;76.10
76726;BME280;65651;53.154;17.916;2024-02-26T11:32:39;100216.92;;;11.14;76.28
76726;BME280;65651;53.154;17.916;2024-02-26T11:35:07;100219.75;;;11.23;75.95
76726;BME280;65651;53.154;17.916;2024-02-26T11:37:37;100221.52;;;11.25;75.15
76726;BME280;65651;53.154;17.916;2024-02-26T11:40:04;100223.94;;;11.19;75.17
76726;BME280;65651;53.154;17.916;2024-02-26T11:42:43;100227.84;;;11.14;75.29
76726;BME280;65651;53.154;17.916;2024-02-26T11:48:19;100236.44;;;10.99;75.43
76726;BME280;65651;53.154;17.916;2024-02-26T11:50:49;100234.14;;;10.93;75.28
76726;BME280;65651;53.154;17.916;2024-02-26T11:53:24;100233.10;;;10.90;74.85
76726;BME280;65651;53.154;17.916;2024-02-26T11:58:53;100230.77;;;11.05;74.72
76726;BME280;65651;53.154;17.916;2024-02-26T12:01:53;100223.27;;;11.10;74.78
76726;BME280;65651;53.154;17.916;2024-02-26T12:04:25;100227.91;;;11.15;74.76
76726;BME280;65651;53.154;17.916;2024-02-26T12:06:58;100233.82;;;11.26;75.13
76726;BME280;65651;53.154;17.916;2024-02-26T12:09:34;100233.39;;;11.35;74.02
76726;BME280;65651;53.154;17.916;2024-02-26T12:12:06;100230.99;;;11.46;74.02
76726;BME280;65651;53.154;17.916;2024-02-26T12:14:38;100231.92;;;11.59;74.09
76726;BME280;65651;53.154;17.916;2024-02-26T12:17:06;100231.02;;;11.75;74.12
76726;BME280;65651;53.154;17.916;2024-02-26T12:19:37;100223.17;;;11.91;74.19
76726;BME280;65651;53.154;17.916;2024-02-26T12:22:06;100222.04;;;12.10;74.05
76726;BME280;65651;53.154;17.916;2024-02-26T12:24:34;100221.35;;;12.35;73.83
76726;BME280;65651;53.154;17.916;2024-02-26T12:27:00;100218.21;;;12.57;73.73
76726;BME280;65651;53.154;17.916;2024-02-26T12:29:28;100217.51;;;12.68;73.20
76726;BME280;65651;53.154;17.916;2024-02-26T12:31:55;100218.11;;;12.77;72.53
76726;BME280;65651;53.154;17.916;2024-02-26T12:34:22;100220.90;;;12.81;72.25
76726;BME280;65651;53.154;17.916;2024-02-26T12:36:49;100220.38;;;12.80;71.85
76726;BME280;65651;53.154;17.916;2024-02-26T12:39:19;100215.52;;;12.75;71.86
76726;BME280;65651;53.154;17.916;2024-02-26T12:41:47;100216.13;;;12.72;72.17
76726;BME280;65651;53.154;17.916;2024-02-26T12:44:17;100218.73;;;12.67;72.00
76726;BME280;65651;53.154;17.916;2024-02-26T12:46:44;100214.27;;;12.58;71.72
76726;BME280;65651;53.154;17.916;2024-02-26T12:49:15;100213.52;;;12.55;71.81
76726;BME280;65651;53.154;17.916;2024-02-26T12:51:45;100209.91;;;12.52;71.59
76726;BME280;65651;53.154;17.916;2024-02-26T12:54:13;100209.17;;;12.55;71.89
76726;BME280;65651;53.154;17.916;2024-02-26T12:56:40;100208.73;;;12.64;71.54
76726;BME280;65651;53.154;17.916;2024-02-26T12:59:08;100204.45;;;12.72;71.39